createdAt,value
2019-05-06T00:00:10.919Z,1.27
2019-05-06T00:15:10.876Z,1.13
2019-05-06T00:30:10.903Z,1.07
2019-05-06T00:45:10.947Z,1.05
2019-05-06T01:00:11.022Z,1.27
2019-05-06T01:15:11.028Z,1.16
2019-05-06T01:30:11.067Z,1.05
2019-05-06T01:45:11.183Z,1.16
2019-05-06T02:00:11.194Z,1.23
2019-05-06T02:15:11.175Z,1.09
2019-05-06T02:30:11.276Z,1.07
2019-05-06T02:45:12.692Z,1.12
2019-05-06T03:00:13.130Z,1.43
2019-05-06T03:15:15.870Z,1.27
2019-05-06T03:30:16.118Z,1.11
2019-05-06T03:45:13.099Z,1.24
2019-05-06T04:00:12.928Z,1.31
2019-05-06T04:15:14.051Z,1.18
2019-05-06T04:30:13.446Z,1.1
2019-05-06T04:45:13.402Z,1.11
2019-05-06T05:00:12.906Z,1.43
2019-05-06T05:15:11.865Z,1.41
2019-05-06T05:30:12.417Z,1.38
2019-05-06T05:45:12.820Z,1.43
2019-05-06T06:00:12.881Z,1.77
2019-05-06T06:15:12.593Z,1.61
2019-05-06T06:30:12.863Z,1.45
2019-05-06T06:45:12.343Z,1.52
2019-05-06T07:00:12.442Z,1.55
2019-05-06T07:15:12.570Z,2.6
2019-05-06T07:30:12.473Z,2.26
2019-05-06T07:45:12.525Z,1.84
2019-05-06T08:00:12.835Z,1.54
2019-05-06T08:15:05.079Z,1.76
2019-05-06T08:30:03.498Z,1.62
2019-05-06T08:45:03.500Z,1.63
2019-05-06T09:00:03.812Z,1.61
2019-05-06T09:15:09.126Z,2.05
2019-05-06T09:30:13.094Z,1.73
2019-05-06T09:45:12.468Z,1.67
2019-05-06T10:00:12.470Z,1.93
2019-05-06T10:15:12.687Z,1.91
2019-05-06T10:30:12.489Z,1.73
2019-05-06T10:45:12.356Z,1.64
2019-05-06T11:00:12.243Z,1.59
2019-05-06T11:15:03.742Z,1.59
2019-05-06T11:30:03.287Z,1.52
2019-05-06T11:45:03.395Z,1.41
2019-05-06T12:00:03.354Z,1.68
2019-05-06T12:15:07.315Z,1.72
2019-05-06T12:30:12.276Z,1.72
2019-05-06T12:45:13.028Z,1.56
2019-05-06T13:00:12.957Z,1.9
2019-05-06T13:15:07.638Z,1.76
2019-05-06T13:30:05.083Z,1.78
2019-05-06T13:45:05.124Z,1.56
2019-05-06T14:00:05.176Z,1.5
2019-05-06T14:15:05.208Z,1.52
2019-05-06T14:30:05.271Z,1.53
2019-05-06T14:45:05.321Z,1.37
2019-05-06T15:00:05.361Z,1.28
2019-05-06T15:15:05.375Z,1.52
2019-05-06T15:30:05.391Z,1.58
2019-05-06T15:45:05.435Z,1.53
2019-05-06T16:00:05.469Z,1.43
2019-05-06T16:15:05.522Z,1.47
2019-05-06T16:30:07.367Z,1.72
2019-05-06T16:45:07.369Z,1.5
2019-05-06T17:00:07.427Z,1.45
2019-05-06T17:15:07.413Z,1.46
2019-05-06T17:30:07.478Z,1.47
2019-05-06T17:45:07.521Z,1.48
2019-05-06T18:00:07.542Z,1.27
2019-05-06T18:15:08.744Z,1.26
2019-05-06T18:30:15.744Z,1.27
2019-05-06T18:45:09.632Z,1.35
2019-05-06T19:00:09.665Z,1.22
2019-05-06T19:15:09.965Z,1.11
2019-05-06T19:30:09.995Z,1.12
2019-05-06T19:45:10.097Z,1.19
2019-05-06T20:00:10.071Z,1.04
2019-05-06T20:15:10.295Z,0.98
2019-05-06T20:30:10.161Z,1.09
2019-05-06T20:45:10.196Z,1.16
2019-05-06T21:00:10.228Z,1.06
2019-05-06T21:15:10.274Z,1.01
2019-05-06T21:30:10.330Z,1.07
2019-05-06T21:45:12.489Z,1.22
2019-05-06T22:00:12.636Z,1.02
2019-05-06T22:15:11.836Z,0.97
2019-05-06T22:30:11.034Z,1.05
2019-05-06T22:45:12.520Z,1.29
2019-05-06T23:00:12.155Z,1.17
2019-05-06T23:15:12.069Z,1.04
2019-05-06T23:30:12.699Z,1.1
2019-05-06T23:45:12.140Z,1.25
